KLRU/LRU METAR and TAF weather

Enter ICAO airport designator
Station Type Date Time Source
KLRU METAR 2019/12/06 23:55 UTC NOAA

KLRU 062355Z AUTO 10004KT 10SM CLR 14/01 A3031 RMK AO2 T01390013 10166 20125


Station Type Date Time Source
KLRU Decoded METAR 2019/12/06 23:55 UTC NOAA

Las Cruces, Las Cruces International Airport, NM, United States (KLRU) 32-17-22N 106-55-19W
Dec 06, 2019 - 06:55 PM EST / 2019.12.06 2355 UTC
Wind: from the E (100 degrees) at 5 MPH (4 KT):0
Visibility: 10 mile(s):0
Sky conditions: clear
Temperature: 57.0 F (13.9 C)
Dew Point: 34.3 F (1.3 C)
Relative Humidity: 42%
Pressure (altimeter): 30.31 in. Hg (1026 hPa)
ob: KLRU 062355Z AUTO 10004KT 10SM CLR 14/01 A3031 RMK AO2 T01390013 10166 20125
cycle: 0

Station Type Date Time Source
KLRU TAF 2019/12/06 18:33 UTC NOAA

TAF KLRU 061729Z 0618/0718 VRB05KT P6SM BKN250
FM070300 VRB04KT P6SM BKN200 OVC250

Example: see airport list